createdAt,value
2022-08-08T00:04:49.448Z,102446.91
2022-08-08T00:10:17.636Z,102439.63
2022-08-08T00:15:57.586Z,102431.47
2022-08-08T00:21:00.819Z,102442.78
2022-08-08T00:26:06.424Z,102440.09
2022-08-08T00:32:32.794Z,102441.25
2022-08-08T00:36:51.565Z,102445.19
2022-08-08T00:42:19.701Z,102435.78
2022-08-08T00:48:30.067Z,102427.13
2022-08-08T00:54:04.506Z,102427.50
2022-08-08T00:59:44.551Z,102416.75
2022-08-08T01:05:29.292Z,102421.63
2022-08-08T01:10:57.829Z,102419.03
2022-08-08T01:16:27.749Z,102418.34
2022-08-08T01:22:12.791Z,102418.84
2022-08-08T01:27:44.310Z,102417.88
2022-08-08T01:33:23.358Z,102416.38
2022-08-08T01:38:51.381Z,102412.69
2022-08-08T01:44:11.047Z,102426.25
2022-08-08T01:49:45.082Z,102423.59
2022-08-08T01:55:25.416Z,102421.59
2022-08-08T02:01:04.184Z,102420.75
2022-08-08T02:06:33.129Z,102431.63
2022-08-08T02:12:00.174Z,102429.03
2022-08-08T02:17:36.533Z,102433.97
2022-08-08T02:22:55.417Z,102430.03
2022-08-08T02:28:34.766Z,102435.88
2022-08-08T02:34:08.617Z,102428.53
2022-08-08T02:39:42.343Z,102424.69
2022-08-08T02:45:23.918Z,102432.94
2022-08-08T02:51:07.191Z,102430.66
2022-08-08T02:56:32.353Z,102438.44
2022-08-08T03:01:50.538Z,102442.81
2022-08-08T03:07:41.693Z,102442.75
2022-08-08T03:15:53.946Z,102443.03
2022-08-08T03:18:54.698Z,102440.72
2022-08-08T03:23:59.749Z,102441.28
2022-08-08T03:29:17.117Z,102441.75
2022-08-08T03:34:23.289Z,102452.13
2022-08-08T03:39:29.072Z,102461.72
2022-08-08T03:44:33.527Z,102462.97
2022-08-08T03:49:57.465Z,102466.38
2022-08-08T03:55:10.708Z,102477.13
2022-08-08T04:00:26.219Z,102466.72
2022-08-08T04:05:48.073Z,102480.50
2022-08-08T04:10:59.819Z,102482.69
2022-08-08T04:16:03.936Z,102477.31
2022-08-08T04:21:19.846Z,102489.47
2022-08-08T04:26:25.806Z,102496.41
2022-08-08T04:31:56.994Z,102496.91
2022-08-08T04:36:50.607Z,102499.00
2022-08-08T04:41:52.675Z,102498.28
2022-08-08T04:46:58.168Z,102493.09
2022-08-08T04:52:00.491Z,102499.88
2022-08-08T04:57:06.231Z,102500.75
2022-08-08T05:02:13.421Z,102500.69
2022-08-08T05:07:15.678Z,102504.47
2022-08-08T05:12:20.986Z,102502.75
2022-08-08T05:17:23.746Z,102506.56
2022-08-08T05:22:27.762Z,102505.53
2022-08-08T05:27:33.371Z,102498.34
2022-08-08T05:32:36.657Z,102506.88
2022-08-08T05:37:53.440Z,102511.81
2022-08-08T05:43:17.123Z,102517.88
2022-08-08T05:48:28.702Z,102513.94
2022-08-08T05:54:24.179Z,102515.47
2022-08-08T05:59:05.038Z,102519.28
2022-08-08T06:04:13.860Z,102508.44
2022-08-08T06:09:58.230Z,102511.16
2022-08-08T06:14:51.924Z,102520.44
2022-08-08T06:20:03.579Z,102518.75
2022-08-08T06:25:06.063Z,102522.44
2022-08-08T06:30:26.122Z,102533.13
2022-08-08T06:36:04.083Z,102534.97
2022-08-08T06:41:07.472Z,102536.88
2022-08-08T06:46:12.856Z,102537.75
2022-08-08T06:51:17.319Z,102540.69
2022-08-08T06:56:23.166Z,102540.50
2022-08-08T07:02:26.680Z,102540.97
2022-08-08T07:06:59.611Z,102542.94
2022-08-08T07:12:41.281Z,102534.53
2022-08-08T07:18:01.689Z,102546.69
2022-08-08T07:23:22.438Z,102545.09
2022-08-08T07:28:31.373Z,102551.69
2022-08-08T07:33:38.056Z,102565.84
2022-08-08T07:38:57.545Z,102557.28
2022-08-08T07:44:17.662Z,102553.69
2022-08-08T07:49:28.021Z,102569.38
2022-08-08T07:54:43.063Z,102563.25
2022-08-08T08:00:16.057Z,102577.94
2022-08-08T08:05:33.555Z,102568.41
2022-08-08T08:10:39.427Z,102578.00
2022-08-08T08:15:42.103Z,102587.00
2022-08-08T08:20:45.343Z,102595.38
2022-08-08T08:25:55.158Z,102597.38
2022-08-08T08:31:04.680Z,102588.41
2022-08-08T08:36:19.845Z,102600.28
2022-08-08T08:41:26.081Z,102597.50
2022-08-08T08:46:34.506Z,102601.03
2022-08-08T08:51:50.891Z,102603.44
2022-08-08T08:56:56.073Z,102607.72
2022-08-08T09:02:00.017Z,102613.50
2022-08-08T09:07:12.830Z,102617.25
2022-08-08T09:12:19.934Z,102609.91
2022-08-08T09:17:41.213Z,102605.47
2022-08-08T09:22:48.729Z,102622.78
2022-08-08T09:27:57.252Z,102618.41
2022-08-08T09:33:20.784Z,102616.78
2022-08-08T09:38:35.536Z,102624.47
2022-08-08T09:44:06.453Z,102611.06
2022-08-08T09:49:42.851Z,102617.44
2022-08-08T09:54:44.750Z,102624.06
2022-08-08T10:00:20.991Z,102628.13
2022-08-08T10:05:31.205Z,102631.75
2022-08-08T10:10:37.313Z,102632.41
2022-08-08T10:15:39.457Z,102630.34
2022-08-08T10:20:58.179Z,102624.56
2022-08-08T10:26:05.748Z,102629.25
2022-08-08T10:31:50.084Z,102620.69
2022-08-08T10:36:52.599Z,102617.19
2022-08-08T10:42:16.334Z,102618.66
2022-08-08T10:47:21.112Z,102627.97
2022-08-08T10:52:30.706Z,102619.97
2022-08-08T10:57:50.783Z,102619.56
2022-08-08T11:02:56.913Z,102607.63
2022-08-08T11:08:38.654Z,102601.84
2022-08-08T11:13:30.096Z,102613.84
2022-08-08T11:18:37.105Z,102613.97
2022-08-08T11:23:42.510Z,102617.16
2022-08-08T11:28:45.526Z,102615.59
2022-08-08T11:34:03.176Z,102618.25
2022-08-08T11:39:12.681Z,102624.28
2022-08-08T11:44:15.743Z,102620.19
2022-08-08T11:49:18.515Z,102617.19
2022-08-08T11:54:44.597Z,102615.44
2022-08-08T12:00:05.630Z,102616.53
2022-08-08T12:05:14.697Z,102607.91
2022-08-08T12:10:19.286Z,102608.78
2022-08-08T12:15:40.020Z,102610.72
2022-08-08T12:20:45.459Z,102609.41
2022-08-08T12:25:55.152Z,102610.06
2022-08-08T12:31:08.781Z,102599.47
2022-08-08T12:36:11.860Z,102599.66
2022-08-08T12:41:18.227Z,102595.34
2022-08-08T12:46:36.994Z,102588.84
2022-08-08T12:51:40.909Z,102588.91
2022-08-08T12:56:51.942Z,102594.34
2022-08-08T13:02:01.676Z,102595.50
2022-08-08T13:07:07.417Z,102592.75
2022-08-08T13:12:28.822Z,102593.16
2022-08-08T13:18:08.559Z,102585.81
2022-08-08T13:23:29.977Z,102588.00
2022-08-08T13:28:28.651Z,102592.53
2022-08-08T13:33:42.673Z,102593.81
2022-08-08T13:38:45.185Z,102597.53
2022-08-08T13:43:49.793Z,102603.81
2022-08-08T13:49:12.326Z,102593.00
2022-08-08T13:54:21.440Z,102589.53
2022-08-08T13:59:34.921Z,102595.38
2022-08-08T14:04:54.574Z,102586.28
2022-08-08T14:10:05.125Z,102577.84
2022-08-08T14:15:39.893Z,102591.25
2022-08-08T14:21:08.159Z,102598.19
2022-08-08T14:26:25.133Z,102593.56
2022-08-08T14:32:05.863Z,102601.88
2022-08-08T14:36:54.546Z,102591.25
2022-08-08T14:42:03.509Z,102597.69
2022-08-08T14:47:21.191Z,102593.34
2022-08-08T14:52:25.630Z,102590.00
2022-08-08T14:58:06.287Z,102581.78
2022-08-08T15:02:58.748Z,102586.94
2022-08-08T15:08:21.929Z,102583.38
2022-08-08T15:13:40.472Z,102587.88
2022-08-08T15:18:56.772Z,102576.56
2022-08-08T15:24:00.078Z,102579.41
2022-08-08T15:29:01.935Z,102574.25
2022-08-08T15:34:33.658Z,102580.25
2022-08-08T15:39:50.224Z,102576.94
2022-08-08T15:44:53.442Z,102570.91
2022-08-08T15:50:20.700Z,102577.34
2022-08-08T15:55:22.765Z,102582.75
2022-08-08T16:00:28.203Z,102578.81
2022-08-08T16:05:35.916Z,102565.75
2022-08-08T16:13:05.465Z,102566.84
2022-08-08T16:16:18.138Z,102557.50
2022-08-08T16:21:26.623Z,102554.84
2022-08-08T16:26:34.254Z,102551.13
2022-08-08T16:31:41.979Z,102554.78
2022-08-08T16:36:50.509Z,102557.66
2022-08-08T16:41:53.178Z,102558.06
2022-08-08T16:47:21.618Z,102549.97
2022-08-08T16:55:00.972Z,102539.88
2022-08-08T16:58:16.088Z,102552.63
2022-08-08T17:03:58.731Z,102553.56
2022-08-08T17:09:16.002Z,102552.16
2022-08-08T17:14:27.346Z,102559.38
2022-08-08T17:19:40.884Z,102569.00
2022-08-08T17:24:43.641Z,102562.59
2022-08-08T17:29:56.970Z,102561.16
2022-08-08T17:35:53.894Z,102568.97
2022-08-08T17:40:21.251Z,102575.41
2022-08-08T17:45:24.448Z,102580.63
2022-08-08T17:50:56.528Z,102577.22
2022-08-08T17:56:14.552Z,102578.56
2022-08-08T18:01:43.806Z,102580.97
2022-08-08T18:06:43.115Z,102584.63
2022-08-08T18:11:49.054Z,102605.31
2022-08-08T18:16:54.355Z,102596.25
2022-08-08T18:22:01.893Z,102607.44
2022-08-08T18:27:17.455Z,102607.94
2022-08-08T18:32:19.736Z,102614.38
2022-08-08T18:37:34.490Z,102609.84
2022-08-08T18:42:36.615Z,102616.97
2022-08-08T18:47:39.879Z,102612.66
2022-08-08T18:52:42.178Z,102610.91
2022-08-08T18:57:46.162Z,102619.53
2022-08-08T19:02:56.479Z,102633.34
2022-08-08T19:07:59.853Z,102639.53
2022-08-08T19:13:01.543Z,102649.66
2022-08-08T19:18:33.416Z,102645.75
2022-08-08T19:23:35.490Z,102652.41
2022-08-08T19:28:37.421Z,102661.03
2022-08-08T19:34:04.626Z,102666.56
2022-08-08T19:39:04.783Z,102668.06
2022-08-08T19:44:13.192Z,102670.59
2022-08-08T19:49:28.876Z,102681.75
2022-08-08T19:54:39.366Z,102690.34
2022-08-08T19:59:41.791Z,102701.34
2022-08-08T20:04:43.472Z,102699.41
2022-08-08T20:09:55.839Z,102699.03
2022-08-08T20:14:59.171Z,102702.97
2022-08-08T20:20:01.159Z,102692.31
2022-08-08T20:25:04.431Z,102706.88
2022-08-08T20:30:35.534Z,102700.84
2022-08-08T20:35:57.068Z,102704.53
2022-08-08T20:40:57.486Z,102709.72
2022-08-08T20:46:03.598Z,102704.06
2022-08-08T20:51:05.918Z,102704.28
2022-08-08T20:56:07.848Z,102704.44
2022-08-08T21:01:19.376Z,102705.16
2022-08-08T21:06:22.274Z,102709.34
2022-08-08T21:11:51.567Z,102708.28
2022-08-08T21:16:55.158Z,102715.47
2022-08-08T21:22:00.512Z,102720.41
2022-08-08T21:27:03.031Z,102714.13
2022-08-08T21:32:13.970Z,102718.41
2022-08-08T21:37:19.207Z,102708.38
2022-08-08T21:42:20.879Z,102704.53
2022-08-08T21:48:20.133Z,102700.59
2022-08-08T21:54:36.673Z,102699.19
2022-08-08T21:58:13.669Z,102701.44
2022-08-08T22:03:17.727Z,102696.13
2022-08-08T22:08:24.177Z,102698.19
2022-08-08T22:13:25.951Z,102701.94
2022-08-08T22:18:45.922Z,102706.94
2022-08-08T22:23:53.479Z,102710.41
2022-08-08T22:29:14.893Z,102714.47
2022-08-08T22:34:17.072Z,102704.84
2022-08-08T22:39:19.629Z,102707.28
2022-08-08T22:44:21.999Z,102702.13
2022-08-08T22:49:25.589Z,102709.19
2022-08-08T22:54:35.664Z,102711.31
2022-08-08T23:00:15.376Z,102723.06
2022-08-08T23:05:21.255Z,102719.78
2022-08-08T23:10:25.512Z,102718.94
2022-08-08T23:16:40.729Z,102726.34
2022-08-08T23:20:54.628Z,102729.66
2022-08-08T23:25:56.888Z,102732.44
2022-08-08T23:30:58.614Z,102739.47
2022-08-08T23:36:08.274Z,102738.28
2022-08-08T23:41:17.317Z,102736.28
2022-08-08T23:49:06.162Z,102737.41
2022-08-08T23:52:07.173Z,102733.66
2022-08-08T23:57:20.970Z,102734.25
